createdAt,value
2022-10-03T00:02:12.452Z,13.98
2022-10-03T00:04:39.566Z,14.00
2022-10-03T00:07:45.538Z,14.12
2022-10-03T00:10:22.758Z,14.15
2022-10-03T00:12:53.438Z,13.60
2022-10-03T00:15:32.813Z,14.15
2022-10-03T00:18:31.781Z,14.19
2022-10-03T00:21:31.095Z,13.84
2022-10-03T00:24:26.292Z,14.40
2022-10-03T00:27:03.378Z,14.42
2022-10-03T00:29:39.344Z,14.45
2022-10-03T00:32:30.484Z,14.41
2022-10-03T00:35:02.824Z,14.43
2022-10-03T00:37:30.196Z,14.27
2022-10-03T00:40:35.185Z,14.53
2022-10-03T00:43:05.550Z,14.23
2022-10-03T00:46:01.475Z,14.64
2022-10-03T00:48:48.336Z,14.06
2022-10-03T00:51:45.024Z,14.70
2022-10-03T00:54:32.169Z,14.63
2022-10-03T00:57:36.253Z,14.84
2022-10-03T01:00:16.316Z,14.45
2022-10-03T01:02:47.443Z,14.71
2022-10-03T01:05:29.690Z,14.82
2022-10-03T01:08:17.629Z,14.50
2022-10-03T01:11:00.485Z,14.69
2022-10-03T01:13:46.355Z,14.98
2022-10-03T01:16:38.014Z,14.91
2022-10-03T01:19:49.474Z,14.95
2022-10-03T01:22:41.150Z,14.99
2022-10-03T01:25:10.819Z,14.99
2022-10-03T01:28:17.642Z,14.92
2022-10-03T01:30:51.947Z,14.99
2022-10-03T01:33:27.989Z,14.61
2022-10-03T01:36:03.335Z,15.13
2022-10-03T01:39:17.685Z,15.15
2022-10-03T01:41:59.250Z,15.12
2022-10-03T01:44:44.515Z,15.20
2022-10-03T01:47:29.898Z,15.27
2022-10-03T01:50:05.182Z,15.18
2022-10-03T01:52:49.874Z,15.25
2022-10-03T01:55:44.903Z,14.95
2022-10-03T01:58:18.094Z,15.32
2022-10-03T02:00:58.750Z,15.16
2022-10-03T02:03:36.425Z,15.37
2022-10-03T02:06:11.375Z,15.22
2022-10-03T02:08:41.016Z,15.40
2022-10-03T02:11:11.239Z,15.23
2022-10-03T02:13:44.452Z,14.90
2022-10-03T02:16:29.577Z,14.86
2022-10-03T02:19:11.448Z,15.47
2022-10-03T02:21:55.399Z,15.48
2022-10-03T02:24:45.517Z,15.20
2022-10-03T02:27:24.719Z,15.50
2022-10-03T02:30:16.482Z,15.54
2022-10-03T02:32:46.173Z,15.51
2022-10-03T02:35:31.768Z,15.50
2022-10-03T02:38:36.279Z,15.57
2022-10-03T02:41:23.205Z,15.23
2022-10-03T02:44:01.429Z,15.69
2022-10-03T02:46:47.320Z,15.76
2022-10-03T02:49:51.804Z,15.63
2022-10-03T02:52:42.668Z,15.69
2022-10-03T02:55:50.006Z,15.64
2022-10-03T02:58:29.167Z,15.76
2022-10-03T03:01:17.790Z,15.78
2022-10-03T03:03:53.769Z,15.80
2022-10-03T03:06:35.907Z,15.34
2022-10-03T03:09:27.239Z,15.89
2022-10-03T03:12:02.098Z,15.83
2022-10-03T03:14:29.430Z,15.87
2022-10-03T03:17:15.240Z,15.81
2022-10-03T03:20:16.526Z,15.92
2022-10-03T03:23:03.044Z,15.90
2022-10-03T03:25:42.309Z,15.57
2022-10-03T03:28:21.270Z,16.02
2022-10-03T03:30:52.553Z,16.04
2022-10-03T03:33:31.960Z,15.96
2022-10-03T03:36:05.943Z,15.70
2022-10-03T03:38:46.559Z,15.66
2022-10-03T03:41:31.672Z,16.04
2022-10-03T03:44:36.157Z,16.20
2022-10-03T03:47:09.081Z,16.20
2022-10-03T03:50:06.650Z,16.14
2022-10-03T03:53:07.688Z,16.29
2022-10-03T03:55:50.919Z,16.24
2022-10-03T03:58:26.906Z,16.26
2022-10-03T04:00:56.937Z,15.08
2022-10-03T04:03:54.111Z,16.29
2022-10-03T04:06:34.792Z,16.30
2022-10-03T04:09:07.855Z,16.20
2022-10-03T04:11:49.941Z,16.10
2022-10-03T04:14:22.904Z,16.00
2022-10-03T04:17:19.310Z,15.89
2022-10-03T04:20:11.309Z,16.11
2022-10-03T04:23:01.756Z,15.31
2022-10-03T04:26:00.790Z,16.09
2022-10-03T04:28:45.417Z,16.28
2022-10-03T04:31:20.735Z,16.06
2022-10-03T04:34:28.382Z,16.36
2022-10-03T04:37:18.824Z,16.32
2022-10-03T04:39:55.100Z,16.38
2022-10-03T04:42:42.395Z,16.39
2022-10-03T04:45:53.941Z,16.33
2022-10-03T04:48:45.803Z,16.48
2022-10-03T04:51:16.181Z,16.50
2022-10-03T04:53:57.718Z,16.42
2022-10-03T04:56:53.474Z,16.07
2022-10-03T04:59:38.310Z,16.53
2022-10-03T05:02:08.312Z,16.64
2022-10-03T05:05:03.220Z,16.64
2022-10-03T05:07:41.659Z,16.28
2022-10-03T05:10:44.830Z,16.52
2022-10-03T05:13:20.032Z,15.72
2022-10-03T05:16:14.898Z,16.72
2022-10-03T05:18:50.535Z,16.53
2022-10-03T05:21:20.600Z,16.72
2022-10-03T05:24:19.287Z,16.72
2022-10-03T05:27:39.639Z,16.85
2022-10-03T05:30:15.853Z,16.33
2022-10-03T05:33:12.950Z,16.69
2022-10-03T05:35:51.260Z,16.46
2022-10-03T05:38:34.416Z,16.59
2022-10-03T05:41:11.720Z,16.57
2022-10-03T05:44:02.150Z,16.38
2022-10-03T05:46:52.480Z,16.23
2022-10-03T05:49:40.688Z,16.84
2022-10-03T05:52:37.393Z,16.83
2022-10-03T05:55:13.210Z,16.67
2022-10-03T05:58:12.984Z,16.87
2022-10-03T06:00:50.307Z,16.70
2022-10-03T06:03:52.517Z,16.91
2022-10-03T06:06:41.199Z,16.87
2022-10-03T06:09:22.782Z,16.50
2022-10-03T06:12:28.302Z,16.90
2022-10-03T06:15:13.125Z,16.98
2022-10-03T06:18:01.684Z,16.91
2022-10-03T06:20:41.036Z,16.55
2022-10-03T06:23:52.550Z,16.80
2022-10-03T06:26:45.389Z,16.87
2022-10-03T06:29:27.449Z,16.86
2022-10-03T06:32:26.494Z,16.78
2022-10-03T06:35:15.890Z,16.62
2022-10-03T06:38:00.860Z,16.28
2022-10-03T06:41:06.061Z,16.86
2022-10-03T06:43:51.403Z,16.77
2022-10-03T06:46:45.871Z,16.74
2022-10-03T06:49:27.595Z,16.30
2022-10-03T06:52:03.137Z,16.53
2022-10-03T06:55:14.018Z,16.71
2022-10-03T06:57:46.992Z,16.33
2022-10-03T07:00:17.056Z,16.59
2022-10-03T07:03:06.346Z,16.72
2022-10-03T07:05:51.751Z,16.66
2022-10-03T07:08:59.927Z,16.59
2022-10-03T07:11:44.736Z,16.36
2022-10-03T07:14:35.482Z,16.64
2022-10-03T07:17:03.284Z,16.36
2022-10-03T07:19:30.336Z,16.42
2022-10-03T07:22:16.595Z,16.49
2022-10-03T07:25:09.580Z,16.54
2022-10-03T07:27:59.148Z,16.30
2022-10-03T07:30:46.771Z,16.49
2022-10-03T07:33:39.154Z,15.70
2022-10-03T07:36:49.908Z,16.63
2022-10-03T07:39:54.086Z,16.63
2022-10-03T07:42:33.859Z,16.47
2022-10-03T07:45:30.445Z,16.37
2022-10-03T07:48:09.369Z,16.35
2022-10-03T07:50:36.355Z,16.30
2022-10-03T07:53:29.332Z,16.45
2022-10-03T07:56:21.291Z,16.50
2022-10-03T07:59:17.370Z,16.35
2022-10-03T08:01:47.470Z,16.38
2022-10-03T08:04:28.248Z,16.35
2022-10-03T08:07:04.572Z,16.36
2022-10-03T08:09:46.601Z,16.21
2022-10-03T08:12:32.659Z,16.06
2022-10-03T08:15:10.921Z,16.28
2022-10-03T08:18:01.812Z,16.02
2022-10-03T08:20:39.127Z,16.34
2022-10-03T08:23:30.433Z,16.36
2022-10-03T08:26:20.507Z,16.35
2022-10-03T08:29:35.096Z,16.34
2022-10-03T08:32:39.478Z,16.30
2022-10-03T08:35:25.029Z,16.36
2022-10-03T08:38:12.954Z,16.38
2022-10-03T08:41:19.025Z,16.48
2022-10-03T08:44:07.342Z,15.96
2022-10-03T08:47:11.740Z,16.39
2022-10-03T08:49:51.895Z,16.39
2022-10-03T08:52:40.010Z,16.47
2022-10-03T08:55:31.180Z,16.33
2022-10-03T08:58:19.808Z,16.44
2022-10-03T09:01:00.366Z,16.25
2022-10-03T09:03:49.192Z,16.39
2022-10-03T09:07:05.145Z,16.52
2022-10-03T09:09:39.906Z,16.46
2022-10-03T09:12:42.775Z,16.38
2022-10-03T09:15:25.245Z,16.07
2022-10-03T09:18:05.508Z,16.34
2022-10-03T09:21:20.798Z,16.40
2022-10-03T09:24:15.717Z,15.88
2022-10-03T09:27:33.573Z,16.47
2022-10-03T09:30:29.314Z,16.38
2022-10-03T09:32:56.374Z,16.40
2022-10-03T09:35:50.473Z,16.32
2022-10-03T09:38:38.859Z,16.41
2022-10-03T09:41:31.485Z,16.42
2022-10-03T09:44:20.142Z,16.15
2022-10-03T09:47:23.954Z,16.22
2022-10-03T09:50:21.554Z,16.06
2022-10-03T09:53:32.938Z,16.34
2022-10-03T09:56:27.941Z,16.37
2022-10-03T09:59:13.472Z,16.20
2022-10-03T10:01:46.533Z,16.35
2022-10-03T10:04:57.855Z,16.29
2022-10-03T10:08:20.977Z,16.32
2022-10-03T10:11:25.359Z,16.38
2022-10-03T10:14:11.006Z,16.29
2022-10-03T10:16:45.737Z,16.18
2022-10-03T10:19:32.882Z,16.08
2022-10-03T10:22:11.881Z,16.00
2022-10-03T10:25:06.915Z,16.03
2022-10-03T10:27:33.904Z,16.03
2022-10-03T10:30:15.587Z,16.08
2022-10-03T10:33:39.786Z,16.12
2022-10-03T10:36:28.369Z,16.16
2022-10-03T10:39:18.351Z,16.19
2022-10-03T10:42:39.291Z,16.27
2022-10-03T10:45:39.293Z,16.29
2022-10-03T10:48:39.687Z,16.28
2022-10-03T10:51:16.214Z,16.18
2022-10-03T10:54:20.247Z,16.10
2022-10-03T10:57:29.820Z,15.95
2022-10-03T11:00:19.360Z,15.63
2022-10-03T11:03:10.698Z,15.51
2022-10-03T11:06:00.791Z,14.87
2022-10-03T11:08:52.619Z,15.44
2022-10-03T11:11:44.475Z,15.32
2022-10-03T11:14:14.375Z,15.31
2022-10-03T11:17:18.780Z,15.42
2022-10-03T11:20:23.508Z,15.42
2022-10-03T11:23:09.613Z,15.37
2022-10-03T11:26:01.259Z,15.21
2022-10-03T11:28:46.968Z,15.31
2022-10-03T11:31:20.141Z,14.69
2022-10-03T11:34:09.115Z,14.98
2022-10-03T11:37:06.100Z,15.44
2022-10-03T11:39:54.137Z,15.45
2022-10-03T11:42:40.825Z,15.38
2022-10-03T11:45:24.762Z,15.24
2022-10-03T11:48:23.766Z,14.96
2022-10-03T11:50:54.035Z,15.28
2022-10-03T11:53:36.344Z,15.37
2022-10-03T11:56:06.701Z,14.62
2022-10-03T11:59:02.366Z,15.41
2022-10-03T12:01:48.646Z,15.00
2022-10-03T12:04:46.533Z,15.37
2022-10-03T12:07:53.065Z,15.32
2022-10-03T12:10:43.447Z,15.29
2022-10-03T12:13:17.696Z,14.87
2022-10-03T12:15:51.855Z,15.06
2022-10-03T12:18:30.549Z,15.07
2022-10-03T12:21:23.122Z,15.11
2022-10-03T12:24:25.540Z,14.77
2022-10-03T12:27:13.907Z,14.97
2022-10-03T12:29:46.122Z,14.45
2022-10-03T12:32:45.549Z,15.15
2022-10-03T12:35:35.073Z,14.83
2022-10-03T12:38:20.974Z,14.98
2022-10-03T12:41:20.368Z,14.90
2022-10-03T12:44:16.891Z,14.80
2022-10-03T12:46:57.806Z,14.58
2022-10-03T12:49:40.136Z,14.49
2022-10-03T12:52:20.738Z,14.33
2022-10-03T12:55:00.239Z,14.35
2022-10-03T12:58:14.974Z,14.46
2022-10-03T13:00:56.578Z,14.40
2022-10-03T13:04:05.846Z,14.41
2022-10-03T13:07:03.196Z,14.07
2022-10-03T13:09:49.965Z,14.18
2022-10-03T13:12:39.419Z,13.90
2022-10-03T13:15:47.567Z,14.05
2022-10-03T13:18:45.595Z,13.98
2022-10-03T13:25:02.910Z,13.68
2022-10-03T13:27:43.776Z,13.52
2022-10-03T13:30:17.560Z,13.12
2022-10-03T13:32:51.362Z,13.48
2022-10-03T13:35:48.755Z,12.82
2022-10-03T13:39:08.475Z,13.25
2022-10-03T13:42:08.679Z,13.25
2022-10-03T13:44:44.032Z,12.79
2022-10-03T13:47:24.550Z,13.18
2022-10-03T13:50:05.636Z,13.06
2022-10-03T13:52:55.460Z,13.10
2022-10-03T13:55:35.332Z,12.60
2022-10-03T13:58:12.007Z,13.00
2022-10-03T14:00:51.650Z,12.95
2022-10-03T14:03:31.840Z,12.93
2022-10-03T14:06:36.694Z,13.00
2022-10-03T14:09:17.312Z,12.84
2022-10-03T14:11:50.738Z,12.72
2022-10-03T14:18:06.411Z,12.18
2022-10-03T14:20:43.242Z,12.49
2022-10-03T14:23:37.115Z,12.81
2022-10-03T14:26:14.956Z,12.59
2022-10-03T14:28:42.039Z,12.50
2022-10-03T14:31:18.884Z,11.48
2022-10-03T14:33:52.411Z,12.30
2022-10-03T14:36:32.090Z,12.49
2022-10-03T14:39:29.156Z,12.26
2022-10-03T14:41:56.261Z,12.36
2022-10-03T14:44:37.800Z,12.05
2022-10-03T14:47:17.255Z,12.29
2022-10-03T14:50:00.047Z,12.26
2022-10-03T14:52:39.273Z,12.14
2022-10-03T14:55:18.641Z,12.12
2022-10-03T14:58:09.885Z,11.96
2022-10-03T15:00:43.839Z,12.02
2022-10-03T15:03:17.196Z,12.04
2022-10-03T15:06:19.297Z,12.09
2022-10-03T15:08:52.374Z,11.97
2022-10-03T15:11:27.601Z,11.98
2022-10-03T15:14:02.787Z,11.31
2022-10-03T15:16:34.945Z,11.64
2022-10-03T15:19:11.432Z,11.84
2022-10-03T15:21:44.110Z,11.71
2022-10-03T15:24:24.944Z,11.84
2022-10-03T15:26:59.774Z,11.83
2022-10-03T15:29:28.110Z,11.80
2022-10-03T15:31:58.169Z,11.53
2022-10-03T15:34:31.931Z,11.47
2022-10-03T15:37:11.009Z,11.49
2022-10-03T15:39:42.174Z,11.72
2022-10-03T15:42:09.269Z,11.31
2022-10-03T15:44:55.920Z,11.27
2022-10-03T15:47:32.386Z,11.66
2022-10-03T15:50:34.815Z,11.68
2022-10-03T15:53:35.712Z,11.61
2022-10-03T15:56:15.522Z,11.61
2022-10-03T15:58:50.470Z,11.28
2022-10-03T16:01:27.935Z,11.36
2022-10-03T16:04:02.567Z,11.37
2022-10-03T16:06:40.380Z,11.32
2022-10-03T16:09:22.730Z,11.22
2022-10-03T16:12:16.852Z,11.34
2022-10-03T16:14:57.812Z,10.43
2022-10-03T16:17:42.016Z,11.12
2022-10-03T16:20:17.753Z,11.34
2022-10-03T16:23:19.502Z,11.42
2022-10-03T16:25:58.828Z,11.44
2022-10-03T16:28:34.834Z,11.24
2022-10-03T16:31:35.183Z,11.19
2022-10-03T16:34:15.831Z,11.03
2022-10-03T16:36:48.402Z,11.05
2022-10-03T16:39:26.126Z,11.06
2022-10-03T16:41:55.538Z,11.02
2022-10-03T16:44:25.388Z,11.17
2022-10-03T16:46:57.742Z,11.19
2022-10-03T16:50:04.780Z,11.31
2022-10-03T16:52:44.135Z,11.25
2022-10-03T16:55:22.938Z,11.12
2022-10-03T16:57:52.784Z,11.17
2022-10-03T17:00:41.943Z,11.24
2022-10-03T17:03:19.782Z,10.98
2022-10-03T17:05:48.981Z,11.02
2022-10-03T17:08:40.743Z,10.82
2022-10-03T17:11:16.179Z,11.14
2022-10-03T17:13:47.392Z,10.85
2022-10-03T17:16:50.056Z,11.26
2022-10-03T17:19:41.100Z,11.28
2022-10-03T17:22:17.231Z,10.76
2022-10-03T17:25:08.629Z,11.23
2022-10-03T17:27:41.939Z,11.24
2022-10-03T17:30:35.732Z,11.28
2022-10-03T17:33:11.991Z,11.15
2022-10-03T17:35:55.088Z,10.84
2022-10-03T17:38:49.929Z,10.76
2022-10-03T17:41:43.735Z,11.37
2022-10-03T17:44:36.754Z,11.39
2022-10-03T17:47:23.041Z,11.36
2022-10-03T17:50:22.495Z,11.38
2022-10-03T17:52:53.141Z,10.43
2022-10-03T17:55:42.252Z,11.27
2022-10-03T17:58:17.230Z,11.18
2022-10-03T18:00:44.738Z,11.36
2022-10-03T18:03:33.358Z,11.45
2022-10-03T18:06:23.413Z,11.28
2022-10-03T18:08:52.523Z,11.39
2022-10-03T18:11:25.135Z,11.18
2022-10-03T18:14:01.907Z,11.46
2022-10-03T18:16:32.509Z,11.41
2022-10-03T18:19:10.659Z,11.48
2022-10-03T18:22:12.715Z,11.58
2022-10-03T18:24:52.228Z,11.47
2022-10-03T18:27:38.183Z,11.53
2022-10-03T18:30:32.714Z,11.60
2022-10-03T18:33:01.939Z,11.50
2022-10-03T18:35:38.122Z,11.14
2022-10-03T18:38:34.368Z,11.43
2022-10-03T18:41:05.186Z,11.26
2022-10-03T18:43:45.372Z,11.39
2022-10-03T18:46:30.409Z,10.77
2022-10-03T18:52:22.608Z,11.51
2022-10-03T18:55:21.544Z,11.58
2022-10-03T18:58:18.002Z,11.02
2022-10-03T19:01:25.433Z,10.91
2022-10-03T19:04:00.354Z,11.48
2022-10-03T19:06:36.127Z,11.36
2022-10-03T19:09:38.609Z,11.33
2022-10-03T19:12:20.666Z,11.70
2022-10-03T19:14:47.868Z,10.06
2022-10-03T19:18:10.004Z,11.78
2022-10-03T19:20:50.746Z,11.82
2022-10-03T19:23:34.270Z,11.12
2022-10-03T19:26:07.785Z,11.23
2022-10-03T19:28:44.629Z,11.70
2022-10-03T19:31:12.039Z,11.89
2022-10-03T19:33:45.361Z,11.79
2022-10-03T19:36:17.583Z,11.98
2022-10-03T19:38:47.832Z,11.94
2022-10-03T19:41:37.295Z,12.01
2022-10-03T19:44:19.813Z,12.04
2022-10-03T19:46:54.111Z,11.89
2022-10-03T19:49:46.685Z,12.02
2022-10-03T19:52:16.842Z,11.82
2022-10-03T19:54:45.378Z,11.95
2022-10-03T19:57:38.679Z,12.02
2022-10-03T20:00:16.059Z,11.85
2022-10-03T20:02:45.789Z,11.93
2022-10-03T20:05:54.860Z,12.15
2022-10-03T20:08:45.776Z,12.16
2022-10-03T20:11:41.522Z,11.90
2022-10-03T20:14:16.415Z,12.10
2022-10-03T20:16:48.202Z,11.85
2022-10-03T20:19:22.504Z,11.90
2022-10-03T20:21:57.026Z,12.17
2022-10-03T20:24:36.988Z,12.06
2022-10-03T20:27:21.087Z,12.26
2022-10-03T20:30:13.984Z,12.39
2022-10-03T20:32:46.055Z,12.33
2022-10-03T20:35:22.711Z,12.35
2022-10-03T20:38:13.555Z,12.38
2022-10-03T20:40:49.293Z,12.52
2022-10-03T20:43:20.024Z,12.38
2022-10-03T20:46:02.689Z,12.46
2022-10-03T20:48:34.948Z,12.46
2022-10-03T20:51:02.084Z,12.51
2022-10-03T20:53:31.706Z,12.48
2022-10-03T20:56:07.244Z,12.15
2022-10-03T20:58:41.493Z,12.07
2022-10-03T21:01:20.031Z,12.51
2022-10-03T21:04:14.797Z,12.65
2022-10-03T21:07:12.326Z,12.67
2022-10-03T21:09:54.079Z,12.67
2022-10-03T21:12:29.253Z,12.54
2022-10-03T21:15:26.793Z,12.31
2022-10-03T21:17:57.345Z,12.03
2022-10-03T21:20:32.166Z,12.29
2022-10-03T21:23:04.402Z,12.32
2022-10-03T21:25:37.823Z,12.19
2022-10-03T21:28:13.180Z,12.49
2022-10-03T21:30:59.230Z,12.54
2022-10-03T21:33:37.164Z,12.58
2022-10-03T21:36:13.127Z,12.12
2022-10-03T21:38:45.862Z,12.19
2022-10-03T21:41:29.659Z,12.53
2022-10-03T21:44:12.699Z,12.49
2022-10-03T21:46:56.813Z,12.53
2022-10-03T21:49:47.882Z,12.59
2022-10-03T21:52:25.396Z,12.60
2022-10-03T21:55:04.289Z,12.49
2022-10-03T21:57:55.514Z,12.44
2022-10-03T22:00:49.551Z,12.53
2022-10-03T22:03:25.851Z,12.11
2022-10-03T22:06:09.349Z,12.26
2022-10-03T22:08:38.454Z,11.88
2022-10-03T22:11:23.662Z,12.62
2022-10-03T22:14:09.402Z,12.48
2022-10-03T22:16:50.706Z,12.39
2022-10-03T22:19:33.037Z,12.45
2022-10-03T22:22:37.587Z,12.64
2022-10-03T22:25:26.908Z,11.91
2022-10-03T22:28:16.956Z,12.66
2022-10-03T22:31:20.405Z,12.71
2022-10-03T22:33:57.745Z,12.66
2022-10-03T22:36:25.346Z,12.19
2022-10-03T22:38:53.294Z,12.67
2022-10-03T22:41:28.256Z,12.75
2022-10-03T22:43:57.869Z,12.74
2022-10-03T22:46:29.588Z,12.57
2022-10-03T22:49:06.285Z,12.80
2022-10-03T22:51:35.858Z,12.69
2022-10-03T22:54:11.493Z,12.66
2022-10-03T22:56:46.803Z,12.66
2022-10-03T22:59:20.396Z,12.78
2022-10-03T23:01:51.846Z,12.33
2022-10-03T23:04:47.951Z,12.81
2022-10-03T23:07:24.544Z,12.46
2022-10-03T23:10:28.222Z,12.53
2022-10-03T23:13:07.411Z,12.60
2022-10-03T23:15:39.723Z,12.45
2022-10-03T23:18:34.685Z,12.71
2022-10-03T23:21:10.188Z,12.62
2022-10-03T23:23:59.443Z,12.55
2022-10-03T23:26:41.486Z,12.55
2022-10-03T23:29:14.569Z,12.04
2022-10-03T23:31:57.809Z,12.54
2022-10-03T23:34:36.874Z,12.37
2022-10-03T23:37:16.027Z,12.50
2022-10-03T23:39:55.174Z,12.50
2022-10-03T23:42:37.855Z,12.22
2022-10-03T23:45:09.820Z,12.53
2022-10-03T23:47:40.702Z,12.32
2022-10-03T23:50:09.364Z,12.53
2022-10-03T23:52:51.832Z,12.46
2022-10-03T23:55:24.572Z,12.31
2022-10-03T23:57:51.970Z,12.39
